createdAt,value
2019-04-05T00:01:35.522Z,7.00
2019-04-05T00:04:05.271Z,7.00
2019-04-05T00:06:35.010Z,7.00
2019-04-05T00:09:06.512Z,7.00
2019-04-05T00:11:36.288Z,7.00
2019-04-05T00:14:06.000Z,7.00
2019-04-05T00:16:37.267Z,7.00
2019-04-05T00:19:06.910Z,7.00
2019-04-05T00:21:36.566Z,7.00
2019-04-05T00:24:06.222Z,7.00
2019-04-05T00:26:35.870Z,6.90
2019-04-05T00:29:05.508Z,6.90
2019-04-05T00:31:35.164Z,6.90
2019-04-05T00:34:04.915Z,6.90
2019-04-05T00:36:34.704Z,6.90
2019-04-05T00:39:08.233Z,6.90
2019-04-05T00:41:38.714Z,6.90
2019-04-05T00:44:08.424Z,6.90
2019-04-05T00:46:38.160Z,6.90
2019-04-05T00:49:07.823Z,6.90
2019-04-05T00:51:37.576Z,6.90
2019-04-05T00:54:07.258Z,6.90
2019-04-05T00:56:37.093Z,6.90
2019-04-05T00:59:06.911Z,6.90
2019-04-05T01:01:36.645Z,6.90
2019-04-05T01:04:06.292Z,6.90
2019-04-05T01:06:36.097Z,6.90
2019-04-05T01:09:07.684Z,6.90
2019-04-05T01:11:37.591Z,6.90
2019-04-05T01:14:07.307Z,6.90
2019-04-05T01:16:36.991Z,6.90
2019-04-05T01:19:07.617Z,6.90
2019-04-05T01:21:40.863Z,6.80
2019-04-05T01:24:11.572Z,6.80
2019-04-05T01:26:43.621Z,6.80
2019-04-05T01:29:13.760Z,6.80
2019-04-05T01:31:43.591Z,6.80
2019-04-05T01:34:13.315Z,6.80
2019-04-05T01:36:43.942Z,6.80
2019-04-05T01:39:13.609Z,6.80
2019-04-05T01:41:43.811Z,6.80
2019-04-05T01:44:13.763Z,6.80
2019-04-05T01:46:43.851Z,6.90
2019-04-05T01:49:13.591Z,6.90
2019-04-05T01:51:43.481Z,6.90
2019-04-05T01:54:13.712Z,6.90
2019-04-05T01:56:43.543Z,6.90
2019-04-05T01:59:13.207Z,6.90
2019-04-05T02:01:42.866Z,6.90
2019-04-05T02:04:12.616Z,6.90
2019-04-05T02:06:43.019Z,6.90
2019-04-05T02:09:13.196Z,7.00
2019-04-05T02:11:43.096Z,7.00
2019-04-05T02:14:12.956Z,7.00
2019-04-05T02:16:42.675Z,7.00
2019-04-05T02:19:12.404Z,6.90
2019-04-05T02:21:42.119Z,6.90
2019-04-05T02:24:11.865Z,6.90
2019-04-05T02:26:41.523Z,6.80
2019-04-05T02:29:11.435Z,6.80
2019-04-05T02:31:41.235Z,6.80
2019-04-05T02:34:10.923Z,6.70
2019-04-05T02:36:40.824Z,6.70
2019-04-05T02:39:10.491Z,6.70
2019-04-05T02:41:40.967Z,6.70
2019-04-05T02:44:12.686Z,6.60
2019-04-05T02:46:44.591Z,6.50
2019-04-05T02:49:15.367Z,6.50
2019-04-05T02:51:48.708Z,6.40
2019-04-05T02:54:19.315Z,6.40
2019-04-05T02:56:50.107Z,6.30
2019-04-05T02:59:20.639Z,6.20
2019-04-05T03:01:51.253Z,6.20
2019-04-05T03:04:21.007Z,6.10
2019-04-05T03:06:52.808Z,6.10
2019-04-05T03:09:23.628Z,6.10
2019-04-05T03:11:54.365Z,6.10
2019-04-05T03:14:24.804Z,6.00
2019-04-05T03:16:56.069Z,6.00
2019-04-05T03:19:29.543Z,5.90
2019-04-05T03:22:04.566Z,5.90
2019-04-05T03:24:37.309Z,5.90
2019-04-05T03:27:18.759Z,5.90
2019-04-05T03:29:48.954Z,5.90
2019-04-05T03:32:19.037Z,6.00
2019-04-05T03:34:48.893Z,6.00
2019-04-05T03:37:18.785Z,6.00
2019-04-05T03:39:48.696Z,6.00
2019-04-05T03:42:18.507Z,6.00
2019-04-05T03:44:48.377Z,6.10
2019-04-05T03:47:18.937Z,6.10
2019-04-05T03:49:49.006Z,6.20
2019-04-05T03:52:19.323Z,6.30
2019-04-05T03:54:49.407Z,6.30
2019-04-05T03:57:20.567Z,6.40
2019-04-05T03:59:50.432Z,6.50
2019-04-05T04:02:23.438Z,6.40
2019-04-05T04:04:51.716Z,6.40
2019-04-05T04:07:21.644Z,6.40
2019-04-05T04:09:51.561Z,6.40
2019-04-05T04:12:21.547Z,6.30
2019-04-05T04:14:51.474Z,6.30
2019-04-05T04:17:22.240Z,6.40
2019-04-05T04:19:52.102Z,6.40
2019-04-05T04:22:28.923Z,6.40
2019-04-05T04:24:59.585Z,6.40
2019-04-05T04:27:30.316Z,6.40
2019-04-05T04:30:00.819Z,6.40
2019-04-05T04:32:30.916Z,6.40
2019-04-05T04:35:00.925Z,6.40
2019-04-05T04:37:30.761Z,6.40
2019-04-05T04:40:00.736Z,6.40
2019-04-05T04:42:30.693Z,6.40
2019-04-05T04:45:11.393Z,6.40
2019-04-05T04:47:32.352Z,6.40
2019-04-05T04:50:03.015Z,6.40
2019-04-05T04:52:33.522Z,6.50
2019-04-05T04:55:04.363Z,6.60
2019-04-05T04:57:34.343Z,6.60
2019-04-05T05:00:06.371Z,6.60
2019-04-05T05:02:36.539Z,6.70
2019-04-05T05:05:07.475Z,6.70
2019-04-05T05:07:37.889Z,6.70
2019-04-05T05:10:09.476Z,6.80
2019-04-05T05:12:39.849Z,6.90
2019-04-05T05:15:10.104Z,6.90
2019-04-05T05:17:39.951Z,7.00
2019-04-05T05:20:10.212Z,7.00
2019-04-05T05:22:40.269Z,7.10
2019-04-05T05:25:10.935Z,7.20
2019-04-05T05:27:40.923Z,7.20
2019-04-05T05:30:11.890Z,7.30
2019-04-05T05:32:42.092Z,7.30
2019-04-05T05:35:11.959Z,7.40
2019-04-05T05:37:41.793Z,7.40
2019-04-05T05:40:12.017Z,7.50
2019-04-05T05:42:41.780Z,7.60
2019-04-05T05:45:11.935Z,7.60
2019-04-05T05:47:51.789Z,7.70
2019-04-05T05:50:13.728Z,7.80
2019-04-05T05:52:44.168Z,7.80
2019-04-05T05:55:14.093Z,7.80
2019-04-05T05:57:43.887Z,7.80
2019-04-05T06:00:15.647Z,7.80
2019-04-05T06:02:48.237Z,7.90
2019-04-05T06:05:17.247Z,8.00
2019-04-05T06:07:46.956Z,8.00
2019-04-05T06:10:17.092Z,8.00
2019-04-05T06:12:47.066Z,8.10
2019-04-05T06:15:17.028Z,8.20
2019-04-05T06:17:46.724Z,8.20
2019-04-05T06:20:17.051Z,8.30
2019-04-05T06:22:47.699Z,8.40
2019-04-05T06:25:17.499Z,8.40
2019-04-05T06:27:48.123Z,8.50
2019-04-05T06:30:17.967Z,8.50
2019-04-05T06:32:47.660Z,8.60
2019-04-05T06:35:17.630Z,8.70
2019-04-05T06:37:47.275Z,8.70
2019-04-05T06:40:16.999Z,8.80
2019-04-05T06:42:46.644Z,8.80
2019-04-05T06:45:16.391Z,8.90
2019-04-05T06:47:46.114Z,8.90
2019-04-05T06:50:15.904Z,9.00
2019-04-05T06:52:46.759Z,9.00
2019-04-05T06:55:16.425Z,9.10
2019-04-05T06:57:46.127Z,9.20
2019-04-05T07:00:16.266Z,9.20
2019-04-05T07:02:46.249Z,9.30
2019-04-05T07:05:16.116Z,9.40
2019-04-05T07:07:45.883Z,9.40
2019-04-05T07:10:15.644Z,9.50
2019-04-05T07:12:45.412Z,9.50
2019-04-05T07:15:15.085Z,9.60
2019-04-05T07:17:44.778Z,9.70
2019-04-05T07:20:14.678Z,9.80
2019-04-05T07:22:44.419Z,9.90
2019-04-05T07:25:15.303Z,10.00
2019-04-05T07:27:44.999Z,10.10
2019-04-05T07:30:15.040Z,10.20
2019-04-05T07:32:44.715Z,10.30
2019-04-05T07:35:14.443Z,10.40
2019-04-05T07:37:44.130Z,10.40
2019-04-05T07:40:13.895Z,10.50
2019-04-05T07:42:43.633Z,10.60
2019-04-05T07:45:13.553Z,10.70
2019-04-05T07:47:43.212Z,10.80
2019-04-05T07:50:13.208Z,10.90
2019-04-05T07:52:43.147Z,10.90
2019-04-05T07:55:12.934Z,11.00
2019-04-05T07:57:43.551Z,11.10
2019-04-05T08:00:40.820Z,11.20
2019-04-05T08:03:10.483Z,11.20
2019-04-05T08:05:40.592Z,11.20
2019-04-05T08:08:13.894Z,11.30
2019-04-05T08:10:44.480Z,11.40
2019-04-05T08:13:15.598Z,11.50
2019-04-05T08:15:45.487Z,11.50
2019-04-05T08:18:15.208Z,11.60
2019-04-05T08:20:44.905Z,11.60
2019-04-05T08:23:14.551Z,11.70
2019-04-05T08:25:44.204Z,11.70
2019-04-05T08:28:13.935Z,11.70
2019-04-05T08:30:43.580Z,11.80
2019-04-05T08:33:13.243Z,11.80
2019-04-05T08:35:42.898Z,11.70
2019-04-05T08:38:12.663Z,11.80
2019-04-05T08:40:43.430Z,11.90
2019-04-05T08:43:13.210Z,12.00
2019-04-05T08:45:42.957Z,11.90
2019-04-05T08:48:12.871Z,12.00
2019-04-05T08:50:42.551Z,12.10
2019-04-05T08:53:12.395Z,12.10
2019-04-05T08:55:42.099Z,12.10
2019-04-05T08:58:12.115Z,12.10
2019-04-05T09:00:41.811Z,12.20
2019-04-05T09:03:12.068Z,12.20
2019-04-05T09:05:42.073Z,12.20
2019-04-05T09:08:11.740Z,12.20
2019-04-05T09:10:41.464Z,12.10
2019-04-05T09:13:11.247Z,12.20
2019-04-05T09:15:40.979Z,12.20
2019-04-05T09:18:10.699Z,12.20
2019-04-05T09:20:40.424Z,12.30
2019-04-05T09:23:10.365Z,12.40
2019-04-05T09:25:40.200Z,12.50
2019-04-05T09:28:09.930Z,12.50
2019-04-05T09:30:39.857Z,12.60
2019-04-05T09:33:09.553Z,12.60
2019-04-05T09:35:39.359Z,12.40
2019-04-05T09:38:09.602Z,12.30
2019-04-05T09:40:40.437Z,12.40
2019-04-05T09:43:10.095Z,12.40
2019-04-05T09:45:40.055Z,12.40
2019-04-05T09:48:09.924Z,12.50
2019-04-05T09:50:39.672Z,12.60
2019-04-05T09:53:09.388Z,12.50
2019-04-05T09:55:39.139Z,12.50
2019-04-05T09:58:10.274Z,12.50
2019-04-05T10:00:40.552Z,12.50
2019-04-05T10:03:10.206Z,12.40
2019-04-05T10:05:39.976Z,12.50
2019-04-05T10:08:09.703Z,12.50
2019-04-05T10:10:39.519Z,12.60
2019-04-05T10:13:09.944Z,12.60
2019-04-05T10:15:39.960Z,12.70
2019-04-05T10:18:09.607Z,12.60
2019-04-05T10:20:39.375Z,12.70
2019-04-05T10:23:09.203Z,12.90
2019-04-05T10:25:38.991Z,13.10
2019-04-05T10:28:08.701Z,13.20
2019-04-05T10:30:38.450Z,13.20
2019-04-05T10:33:08.133Z,13.30
2019-04-05T10:35:37.915Z,13.20
2019-04-05T10:38:08.720Z,13.30
2019-04-05T10:40:38.558Z,13.40
2019-04-05T10:43:08.491Z,13.30
2019-04-05T10:45:38.371Z,13.30
2019-04-05T10:48:08.264Z,13.30
2019-04-05T10:50:38.214Z,13.30
2019-04-05T10:53:08.003Z,13.30
2019-04-05T10:55:37.662Z,13.30
2019-04-05T10:58:07.921Z,13.20
2019-04-05T11:00:37.975Z,13.10
2019-04-05T11:03:07.639Z,13.10
2019-04-05T11:05:38.600Z,13.00
2019-04-05T11:08:08.291Z,13.10
2019-04-05T11:10:38.183Z,13.00
2019-04-05T11:13:07.916Z,13.00
2019-04-05T11:15:37.599Z,13.00
2019-04-05T11:18:07.324Z,12.80
2019-04-05T11:20:37.094Z,12.70
2019-04-05T11:23:06.887Z,12.80
2019-04-05T11:25:36.573Z,12.80
2019-04-05T11:28:06.242Z,12.90
2019-04-05T11:30:42.403Z,12.90
2019-04-05T11:33:12.907Z,12.90
2019-04-05T12:35:45.919Z,13.00
2019-04-05T12:38:31.495Z,13.00
2019-04-05T12:41:03.355Z,13.00
2019-04-05T12:43:33.432Z,13.10
2019-04-05T12:46:04.105Z,13.10
2019-04-05T12:48:33.864Z,13.20
2019-04-05T12:51:05.478Z,13.30
2019-04-05T12:53:35.168Z,13.40
2019-04-05T12:56:05.440Z,13.50
2019-04-05T12:58:35.254Z,13.60
2019-04-05T13:01:08.208Z,13.60
2019-04-05T13:03:36.615Z,13.60
2019-04-05T13:06:06.408Z,13.50
2019-04-05T13:08:37.217Z,13.50
2019-04-05T13:11:06.978Z,13.50
2019-04-05T13:13:36.743Z,13.50
2019-04-05T13:16:09.796Z,13.60
2019-04-05T13:18:38.200Z,13.70
2019-04-05T13:21:15.292Z,13.70
2019-04-05T13:23:39.423Z,13.70
2019-04-05T13:26:11.347Z,13.60
2019-04-05T13:28:40.682Z,13.50
2019-04-05T13:31:10.517Z,13.40
2019-04-05T13:33:40.187Z,13.30
2019-04-05T13:36:09.945Z,13.20
2019-04-05T13:38:39.703Z,13.20
2019-04-05T13:41:09.450Z,13.10
2019-04-05T13:43:39.264Z,13.00
2019-04-05T13:46:21.048Z,12.90
2019-04-05T13:48:40.719Z,12.80
2019-04-05T13:51:12.882Z,12.90
2019-04-05T13:53:42.273Z,13.00
2019-04-05T13:56:12.018Z,13.00
2019-04-05T13:58:41.715Z,12.90
2019-04-05T14:01:11.412Z,12.70
2019-04-05T14:03:41.094Z,12.60
2019-04-05T14:06:10.899Z,12.40
2019-04-05T14:08:41.859Z,12.40
2019-04-05T14:11:11.928Z,12.40
2019-04-05T14:13:42.975Z,12.30
2019-04-05T14:16:13.107Z,12.30
2019-04-05T14:18:49.422Z,12.40
2019-04-05T14:21:14.414Z,12.40
2019-04-05T14:23:44.171Z,12.40
2019-04-05T14:26:13.906Z,12.50
2019-04-05T14:28:43.901Z,12.40
2019-04-05T14:31:14.587Z,12.40
2019-04-05T14:33:44.312Z,12.40
2019-04-05T14:36:14.181Z,12.40
2019-04-05T14:38:43.931Z,12.40
2019-04-05T14:41:13.621Z,12.40
2019-04-05T14:43:44.920Z,12.40
2019-04-05T14:46:14.835Z,12.40
2019-04-05T14:48:44.592Z,12.30
2019-04-05T14:51:14.295Z,12.30
2019-04-05T14:53:44.032Z,12.30
2019-04-05T14:56:13.724Z,12.30
2019-04-05T14:58:43.514Z,12.20
2019-04-05T15:01:13.242Z,12.20
2019-04-05T15:03:42.990Z,12.10
2019-04-05T15:06:12.863Z,12.10
2019-04-05T15:08:42.681Z,12.00
2019-04-05T15:11:12.463Z,11.90
2019-04-05T15:13:42.283Z,11.90
2019-04-05T15:16:14.448Z,11.90
2019-04-05T15:18:43.452Z,11.80
2019-04-05T15:21:13.175Z,11.70
2019-04-05T15:23:45.271Z,11.70
2019-04-05T15:26:14.480Z,11.70
2019-04-05T15:28:44.164Z,11.60
2019-04-05T15:31:13.888Z,11.60
2019-04-05T15:33:44.532Z,11.60
2019-04-05T15:36:14.220Z,11.60
2019-04-05T15:38:44.117Z,11.60
2019-04-05T15:41:14.099Z,11.60
2019-04-05T15:43:43.944Z,11.60
2019-04-05T15:46:13.735Z,11.70
2019-04-05T15:48:43.629Z,11.70
2019-04-05T15:51:13.374Z,11.70
2019-04-05T15:53:43.167Z,11.70
2019-04-05T15:56:13.179Z,11.80
2019-04-05T15:58:42.945Z,11.80
2019-04-05T16:01:13.080Z,11.80
2019-04-05T16:03:42.799Z,11.80
2019-04-05T16:06:12.621Z,11.90
2019-04-05T16:08:42.447Z,11.90
2019-04-05T16:11:12.262Z,11.90
2019-04-05T16:13:42.930Z,11.90
2019-04-05T16:16:12.684Z,11.90
2019-04-05T16:18:42.714Z,11.90
2019-04-05T16:21:14.166Z,11.80
2019-04-05T16:23:43.841Z,11.80
2019-04-05T16:26:13.753Z,11.70
2019-04-05T16:28:43.452Z,11.60
2019-04-05T16:31:13.176Z,11.60
2019-04-05T16:33:43.948Z,11.60
2019-04-05T16:36:13.670Z,11.50
2019-04-05T16:38:43.447Z,11.50
2019-04-05T16:41:13.119Z,11.40
2019-04-05T16:43:43.924Z,11.30
2019-04-05T16:46:13.700Z,11.30
2019-04-05T16:48:43.692Z,11.20
2019-04-05T16:51:13.515Z,11.10
2019-04-05T16:54:02.489Z,11.00
2019-04-05T16:56:32.386Z,10.80
2019-04-05T16:59:02.254Z,10.70
2019-04-05T17:01:31.926Z,10.50
2019-04-05T17:04:01.615Z,10.40
2019-04-05T17:06:31.314Z,10.30
2019-04-05T17:09:00.979Z,10.20
2019-04-05T17:11:32.524Z,10.20
2019-04-05T17:14:02.230Z,10.00
2019-04-05T17:16:31.905Z,10.00
2019-04-05T17:19:01.654Z,9.80
2019-04-05T17:21:31.333Z,9.60
2019-04-05T17:24:00.988Z,9.50
2019-04-05T17:26:30.760Z,9.50
2019-04-05T17:29:01.382Z,9.40
2019-04-05T17:31:31.107Z,9.40
2019-04-05T17:34:00.767Z,9.30
2019-04-05T17:36:30.572Z,9.20
2019-04-05T17:39:01.643Z,9.00
2019-04-05T17:41:33.031Z,8.90
2019-04-05T17:44:02.756Z,8.90
2019-04-05T17:46:32.511Z,8.90
2019-04-05T17:49:02.228Z,8.80
2019-04-05T17:51:32.040Z,8.70
2019-04-05T17:54:01.871Z,8.70
2019-04-05T17:56:31.733Z,8.60
2019-04-05T17:59:02.074Z,8.50
2019-04-05T18:01:31.960Z,8.50
2019-04-05T18:04:02.082Z,8.50
2019-04-05T18:06:31.786Z,8.40
2019-04-05T18:09:01.603Z,8.40
2019-04-05T18:11:33.005Z,8.30
2019-04-05T18:14:02.843Z,8.30
2019-04-05T18:16:32.615Z,8.20
2019-04-05T18:19:02.268Z,8.20
2019-04-05T18:21:32.064Z,8.20
2019-04-05T18:24:01.857Z,8.20
2019-04-05T18:26:31.615Z,8.20
2019-04-05T18:29:01.260Z,8.20
2019-04-05T18:31:31.083Z,8.20
2019-04-05T18:34:00.802Z,8.20
2019-04-05T18:36:30.453Z,8.10
2019-04-05T18:39:00.275Z,8.10
2019-04-05T18:41:30.025Z,8.10
2019-04-05T18:43:59.923Z,8.10
2019-04-05T18:46:29.593Z,8.10
2019-04-05T18:48:59.631Z,8.00
2019-04-05T18:51:29.344Z,8.00
2019-04-05T18:53:58.977Z,8.00
2019-04-05T18:56:28.640Z,8.00
2019-04-05T18:58:58.276Z,8.00
2019-04-05T19:01:28.023Z,8.00
2019-04-05T19:03:57.838Z,7.90
2019-04-05T19:06:27.493Z,7.90
2019-04-05T19:08:57.131Z,7.90
2019-04-05T19:11:26.801Z,7.90
2019-04-05T19:14:01.252Z,7.90
2019-04-05T19:16:28.047Z,7.90
2019-04-05T19:18:57.720Z,7.80
2019-04-05T19:21:27.382Z,7.80
2019-04-05T19:23:57.156Z,7.80
2019-04-05T19:26:26.812Z,7.80
2019-04-05T19:28:56.548Z,7.80
2019-04-05T19:49:08.089Z,7.70
2019-04-05T19:51:37.817Z,7.70
2019-04-05T19:54:07.596Z,7.70
2019-04-05T19:56:37.307Z,7.70
2019-04-05T19:59:07.056Z,7.70
2019-04-05T20:01:36.834Z,7.60
2019-04-05T20:04:06.609Z,7.60
2019-04-05T20:06:36.326Z,7.60
2019-04-05T20:09:07.243Z,7.60
2019-04-05T20:11:36.975Z,7.60
2019-04-05T20:14:06.843Z,7.50
2019-04-05T20:16:36.800Z,7.50
2019-04-05T20:19:06.526Z,7.50
2019-04-05T20:21:36.247Z,7.40
2019-04-05T20:24:14.184Z,7.40
2019-04-05T20:26:38.284Z,7.40
2019-04-05T20:29:08.000Z,7.40
2019-04-05T20:31:37.739Z,7.40
2019-04-05T20:34:07.532Z,7.40
2019-04-05T20:36:37.201Z,7.40
2019-04-05T20:39:07.624Z,7.40
2019-04-05T20:41:37.339Z,7.30
2019-04-05T20:44:07.060Z,7.30
2019-04-05T20:46:36.708Z,7.30
2019-04-05T20:49:06.459Z,7.30
2019-04-05T20:51:36.111Z,7.30
2019-04-05T20:54:05.899Z,7.30
2019-04-05T20:56:35.603Z,7.20
2019-04-05T20:59:05.316Z,7.20
2019-04-05T21:01:34.978Z,7.20
2019-04-05T21:04:05.088Z,7.20
2019-04-05T21:06:34.738Z,7.20
2019-04-05T21:09:07.156Z,7.20
2019-04-05T21:11:37.051Z,7.20
2019-04-05T21:14:06.816Z,7.20
2019-04-05T21:16:36.630Z,7.20
2019-04-05T21:19:06.270Z,7.20
2019-04-05T21:21:35.905Z,7.20
2019-04-05T21:24:05.651Z,7.10
2019-04-05T21:26:35.303Z,7.10
2019-04-05T21:29:05.027Z,7.10
2019-04-05T21:31:34.679Z,7.10
2019-04-05T21:34:04.843Z,7.10
2019-04-05T21:36:34.495Z,7.00
2019-04-05T21:39:06.775Z,7.00
2019-04-05T21:41:36.579Z,7.00
2019-04-05T21:44:06.580Z,7.00
2019-04-05T21:46:36.228Z,7.00
2019-04-05T21:49:06.054Z,7.00
2019-04-05T21:51:35.711Z,6.90
2019-04-05T21:54:05.339Z,6.90
2019-04-05T21:56:35.019Z,6.90
2019-04-05T21:59:04.863Z,6.90
2019-04-05T22:01:34.651Z,7.00
2019-04-05T22:04:05.035Z,7.00
2019-04-05T22:06:35.024Z,7.00
2019-04-05T22:09:07.944Z,7.00
2019-04-05T22:11:37.659Z,7.00
2019-04-05T22:14:07.295Z,7.00
2019-04-05T22:16:36.943Z,7.00
2019-04-05T22:19:07.612Z,7.00
2019-04-05T22:21:37.267Z,7.00
2019-04-05T22:24:06.913Z,6.90
2019-04-05T22:26:36.596Z,6.90
2019-04-05T22:29:06.248Z,6.90
2019-04-05T22:31:35.891Z,6.90
2019-04-05T22:34:05.539Z,6.90
2019-04-05T22:36:35.183Z,6.90
2019-04-05T22:39:06.875Z,6.90
2019-04-05T22:41:36.927Z,6.80
2019-04-05T22:44:06.567Z,6.80
2019-04-05T22:46:36.211Z,6.80
2019-04-05T22:49:05.892Z,6.70
2019-04-05T22:51:35.653Z,6.70
2019-04-05T22:54:05.299Z,6.60
2019-04-05T22:56:35.011Z,6.60
2019-04-05T22:59:04.867Z,6.60
2019-04-05T23:01:34.573Z,6.60
2019-04-05T23:04:04.922Z,6.60
2019-04-05T23:06:34.637Z,6.60
2019-04-05T23:09:06.935Z,6.50
2019-04-05T23:11:36.584Z,6.50
2019-04-05T23:14:06.257Z,6.50
2019-04-05T23:16:35.938Z,6.50
2019-04-05T23:19:05.582Z,6.60
2019-04-05T23:21:35.216Z,6.60
2019-04-05T23:24:05.018Z,6.50
2019-04-05T23:26:34.669Z,6.50
2019-04-05T23:29:04.887Z,6.60
2019-04-05T23:31:34.550Z,6.50
2019-04-05T23:34:04.851Z,6.50
2019-04-05T23:36:34.505Z,6.50
2019-04-05T23:39:06.202Z,6.40
2019-04-05T23:41:35.854Z,6.40
2019-04-05T23:44:05.576Z,6.40
2019-04-05T23:46:35.210Z,6.40
2019-04-05T23:49:04.904Z,6.40
2019-04-05T23:51:34.579Z,6.40
2019-04-05T23:54:04.871Z,6.30
2019-04-05T23:56:34.555Z,6.40
2019-04-05T23:59:05.043Z,6.40
